Kansas City, MO (64101)

6:57 AM CDT on March 25, 2017 (GMT -0500)
Berkley Park | | Change Station

Elev 760 ft 39.12 °N, 94.57 °W | Updated 19 seconds ago

Mostly Cloudy
Mostly Cloudy
52.2 °F
Feels Like 52.2 °F
N
0.0
Wind Variable Wind from NE

Today
High -- | Low -- °F
--% Chance of Precip.
Yesterday
High -- | Low -- °F
Precip. -- in
Pressure 29.77 in
Visibility 10.0 miles
Clouds Scattered Clouds 2200 ft
Mostly Cloudy 3600 ft
Dew Point 49 °F
Humidity 88%
Rainfall 0.02 in
Snow Depth Not available.
7:13 AM 7:35 PM
Waning Crescent, 9% visible
SPECI KMKC 251128Z 00000KT 10SM SCT022 BKN036 13/10 A2977 RMK AO2 T01280100
Pressure 29.77 in
Visibility 10.0 miles
Clouds Scattered Clouds 2200 ft
Mostly Cloudy 3600 ft
Dew Point 49 °F
Humidity 88%
Rainfall 0.02 in
Snow Depth Not available.
7:13 AM 7:35 PM
Waning Crescent, 9% visible
SPECI KMKC 251128Z 00000KT 10SM SCT022 BKN036 13/10 A2977 RMK AO2 T01280100

Get Severe Weather Alerts

Thanks for signing up!

Be on the lookout for a verification email in your inbox.

You'll start receiving the daily forecast at 8 AM.

×

10-Day Weather Forecast

Almanac

Astronomy

Mar. 25, 2017 Rise Set
Actual Time
Civil Twilight
Nautical Twilight
Astronomical Twilight
Moon
Length of Visible Light
Length of Day
Tomorrow will be .
, % of the Moon is Illuminated

Today's Extremes

State Highs State Lows

Community

WunderPhotos

Upload Photos

1,962,540 photos uploaded!

WunderBlog® & News

Nearby

Air Quality

  Air Quality AQ Index Pollutant
Not available.

Snow Depth

Station Depth Elevation

Earthquake Activity

City Distance Mag. Time & Date
Minimum magnitude displayed is 2.5.

Earthquake Activity

City Distance Mag. Time & Date
Minimum magnitude displayed is 2.5.

Coastal Water Temperatures

Place Temperature

Stations

Nearby Weather Stations

Station Location Temp. Windchill Dew Point Humidity Wind Precip. Elev Updated Type
                   

Watches & Warnings

There are currently no watches in effect.